createdAt,value
2018-09-23T00:01:39.813Z,85.80
2018-09-23T00:04:08.529Z,86.00
2018-09-23T00:06:37.282Z,86.50
2018-09-23T00:09:07.998Z,86.60
2018-09-23T00:11:36.752Z,87.00
2018-09-23T00:14:05.559Z,87.20
2018-09-23T00:16:34.270Z,87.60
2018-09-23T00:19:02.965Z,87.70
2018-09-23T00:21:31.608Z,87.80
2018-09-23T00:24:00.353Z,87.90
2018-09-23T00:26:29.077Z,88.10
2018-09-23T00:28:57.755Z,88.40
2018-09-23T00:31:26.489Z,88.20
2018-09-23T00:33:55.306Z,88.50
2018-09-23T00:36:24.078Z,88.60
2018-09-23T00:38:52.765Z,88.80
2018-09-23T00:41:21.577Z,89.30
2018-09-23T00:43:50.300Z,89.50
2018-09-23T00:46:19.135Z,89.40
2018-09-23T00:48:47.939Z,89.50
2018-09-23T00:51:16.722Z,89.70
2018-09-23T00:53:45.563Z,90.00
2018-09-23T00:56:14.273Z,90.20
2018-09-23T00:58:43.025Z,90.20
2018-09-23T01:01:11.792Z,90.50
2018-09-23T01:03:40.513Z,90.10
2018-09-23T01:06:09.205Z,90.50
2018-09-23T01:08:37.860Z,90.50
2018-09-23T01:11:06.544Z,90.40
2018-09-23T01:13:35.226Z,90.60
2018-09-23T01:16:03.930Z,90.40
2018-09-23T01:18:32.565Z,90.50
2018-09-23T01:21:01.234Z,90.30
2018-09-23T01:23:29.868Z,90.80
2018-09-23T01:25:58.541Z,90.80
2018-09-23T01:28:27.296Z,91.20
2018-09-23T01:30:55.969Z,91.20
2018-09-23T01:33:24.636Z,91.60
2018-09-23T01:35:53.253Z,91.80
2018-09-23T01:38:21.936Z,92.20
2018-09-23T01:40:50.661Z,92.40
2018-09-23T01:43:19.276Z,92.50
2018-09-23T01:45:47.933Z,92.70
2018-09-23T01:48:16.586Z,92.90
2018-09-23T01:50:45.237Z,92.90
2018-09-23T01:53:13.889Z,93.10
2018-09-23T01:55:42.564Z,93.50
2018-09-23T01:58:11.224Z,93.70
2018-09-23T02:00:39.929Z,93.70
2018-09-23T02:03:08.597Z,93.90
2018-09-23T02:05:37.270Z,93.80
2018-09-23T02:08:06.186Z,93.70
2018-09-23T02:10:34.828Z,93.90
2018-09-23T02:13:04.378Z,94.10
2018-09-23T02:15:33.038Z,94.40
2018-09-23T02:18:01.710Z,94.50
2018-09-23T02:20:30.331Z,94.60
2018-09-23T02:22:59.029Z,94.60
2018-09-23T02:25:27.664Z,94.60
2018-09-23T02:27:56.329Z,94.80
2018-09-23T02:30:25.113Z,94.80
2018-09-23T02:32:53.823Z,94.90
2018-09-23T02:35:23.150Z,95.10
2018-09-23T02:37:53.513Z,95.10
2018-09-23T02:40:22.165Z,95.10
2018-09-23T02:42:50.915Z,95.20
2018-09-23T02:45:19.719Z,95.30
2018-09-23T02:47:48.512Z,95.30
2018-09-23T02:50:17.115Z,95.40
2018-09-23T02:52:45.761Z,95.20
2018-09-23T02:55:14.545Z,95.10
2018-09-23T02:57:43.234Z,95.00
2018-09-23T03:00:11.969Z,95.00
2018-09-23T03:02:40.624Z,94.90
2018-09-23T03:05:09.310Z,94.60
2018-09-23T03:07:38.025Z,94.60
2018-09-23T03:10:06.996Z,94.60
2018-09-23T03:12:35.605Z,94.40
2018-09-23T03:15:04.358Z,94.30
2018-09-23T03:17:33.032Z,94.30
2018-09-23T03:20:01.647Z,94.50
2018-09-23T03:22:30.329Z,94.50
2018-09-23T03:24:59.018Z,94.60
2018-09-23T03:27:27.670Z,94.60
2018-09-23T03:29:56.357Z,94.60
2018-09-23T03:32:25.190Z,94.70
2018-09-23T03:34:53.842Z,94.80
2018-09-23T03:37:22.493Z,94.80
2018-09-23T03:39:51.182Z,94.70
2018-09-23T03:42:19.917Z,94.60
2018-09-23T03:44:49.900Z,94.80
2018-09-23T03:47:19.442Z,94.80
2018-09-23T03:49:49.669Z,94.80
2018-09-23T03:52:19.307Z,94.90
2018-09-23T03:54:49.211Z,95.10
2018-09-23T03:57:18.937Z,95.10
2018-09-23T03:59:49.024Z,95.00
2018-09-23T04:02:21.029Z,95.00
2018-09-23T04:04:50.970Z,94.90
2018-09-23T04:07:19.669Z,95.10
2018-09-23T04:09:48.433Z,95.10
2018-09-23T04:12:17.118Z,95.10
2018-09-23T04:14:45.779Z,95.10
2018-09-23T04:17:14.491Z,95.00
2018-09-23T04:19:43.225Z,95.30
2018-09-23T04:22:11.921Z,95.60
2018-09-23T04:24:40.610Z,95.80
2018-09-23T04:27:09.298Z,95.90
2018-09-23T04:29:37.972Z,95.90
2018-09-23T04:32:06.825Z,95.80
2018-09-23T04:34:35.470Z,95.90
2018-09-23T04:37:04.129Z,95.60
2018-09-23T04:39:32.864Z,95.60
2018-09-23T04:42:01.548Z,95.60
2018-09-23T04:44:30.202Z,95.70
2018-09-23T04:46:58.864Z,95.60
2018-09-23T04:49:27.500Z,95.60
2018-09-23T04:51:56.173Z,95.60
2018-09-23T04:54:24.794Z,95.70
2018-09-23T04:56:53.409Z,95.80
2018-09-23T04:59:22.034Z,95.80
2018-09-23T05:01:50.727Z,95.80
2018-09-23T05:04:19.412Z,95.90
2018-09-23T05:06:48.062Z,96.10
2018-09-23T05:09:16.776Z,96.10
2018-09-23T05:11:45.425Z,96.40
2018-09-23T05:14:14.101Z,96.30
2018-09-23T05:16:42.791Z,96.40
2018-09-23T05:19:11.565Z,96.50
2018-09-23T05:21:40.257Z,96.50
2018-09-23T05:24:08.919Z,96.70
2018-09-23T05:26:37.564Z,96.70
2018-09-23T05:29:06.218Z,96.90
2018-09-23T05:31:34.949Z,97.20
2018-09-23T05:34:03.582Z,99.30
2018-09-23T05:36:32.284Z,99.30
2018-09-23T05:39:00.952Z,99.60
2018-09-23T05:41:29.661Z,99.30
2018-09-23T05:43:58.286Z,99.10
2018-09-23T05:46:26.925Z,98.60
2018-09-23T05:48:55.584Z,98.20
2018-09-23T05:51:25.011Z,98.30
2018-09-23T05:53:53.917Z,98.30
2018-09-23T05:56:22.610Z,97.70
2018-09-23T05:58:51.714Z,97.40
2018-09-23T06:01:20.445Z,97.20
2018-09-23T06:03:49.176Z,97.10
2018-09-23T06:06:18.646Z,96.70
2018-09-23T06:08:47.353Z,96.20
2018-09-23T06:11:16.032Z,95.80
2018-09-23T06:13:44.702Z,94.60
2018-09-23T06:16:13.368Z,94.30
2018-09-23T06:18:42.008Z,93.90
2018-09-23T06:21:10.681Z,93.20
2018-09-23T06:23:39.859Z,92.30
2018-09-23T06:26:08.597Z,91.20
2018-09-23T06:28:37.264Z,91.20
2018-09-23T06:31:06.157Z,90.90
2018-09-23T06:33:34.807Z,90.60
2018-09-23T06:36:03.460Z,90.50
2018-09-23T06:38:32.218Z,90.20
2018-09-23T06:41:00.886Z,90.10
2018-09-23T06:43:29.537Z,89.90
2018-09-23T06:45:58.166Z,89.50
2018-09-23T06:48:26.878Z,89.20
2018-09-23T06:50:55.595Z,88.80
2018-09-23T06:53:24.257Z,88.30
2018-09-23T06:55:52.891Z,88.50
2018-09-23T06:58:21.641Z,87.70
2018-09-23T07:00:50.320Z,87.10
2018-09-23T07:03:19.031Z,86.50
2018-09-23T07:05:47.734Z,85.90
2018-09-23T07:08:16.594Z,85.20
2018-09-23T07:10:45.268Z,85.80
2018-09-23T07:13:14.009Z,84.40
2018-09-23T07:15:42.626Z,84.10
2018-09-23T07:18:11.383Z,83.60
2018-09-23T07:20:40.001Z,83.60
2018-09-23T07:23:08.697Z,83.50
2018-09-23T07:25:37.337Z,83.80
2018-09-23T07:28:06.013Z,82.70
2018-09-23T07:30:34.668Z,82.40
2018-09-23T07:33:03.346Z,83.00
2018-09-23T07:35:31.972Z,83.00
2018-09-23T07:38:00.769Z,83.10
2018-09-23T07:40:29.544Z,84.20
2018-09-23T07:42:58.285Z,85.80
2018-09-23T07:45:26.959Z,87.90
2018-09-23T07:47:55.628Z,89.50
2018-09-23T07:50:24.353Z,90.40
2018-09-23T07:52:53.077Z,90.50
2018-09-23T07:55:21.708Z,90.70
2018-09-23T07:57:50.437Z,90.40
2018-09-23T08:00:19.092Z,89.20
2018-09-23T08:02:47.740Z,88.70
2018-09-23T08:05:16.440Z,88.30
2018-09-23T08:07:45.091Z,87.30
2018-09-23T08:10:13.792Z,86.50
2018-09-23T08:12:42.567Z,86.40
2018-09-23T08:15:11.264Z,85.20
2018-09-23T08:17:39.965Z,85.00
2018-09-23T08:20:08.725Z,84.60
2018-09-23T08:22:37.422Z,84.50
2018-09-23T08:25:06.174Z,84.40
2018-09-23T08:27:35.187Z,84.40
2018-09-23T08:30:03.953Z,85.00
2018-09-23T08:32:32.669Z,85.60
2018-09-23T08:35:01.333Z,86.20
2018-09-23T08:37:30.112Z,86.20
2018-09-23T08:39:58.790Z,86.90
2018-09-23T08:42:27.461Z,87.80
2018-09-23T08:44:56.103Z,88.10
2018-09-23T08:47:24.739Z,88.00
2018-09-23T08:49:53.550Z,87.60
2018-09-23T08:52:22.224Z,87.00
2018-09-23T08:54:50.889Z,87.00
2018-09-23T08:57:19.545Z,86.20
2018-09-23T08:59:48.265Z,85.60
2018-09-23T09:02:17.037Z,85.60
2018-09-23T09:04:46.021Z,85.20
2018-09-23T09:07:14.852Z,85.20
2018-09-23T09:09:43.750Z,85.40
2018-09-23T09:12:12.449Z,85.10
2018-09-23T09:14:41.196Z,85.00
2018-09-23T09:17:09.893Z,84.30
2018-09-23T09:19:38.517Z,84.60
2018-09-23T09:22:07.293Z,84.90
2018-09-23T09:24:37.281Z,84.60
2018-09-23T09:27:06.297Z,84.30
2018-09-23T09:29:34.978Z,84.60
2018-09-23T09:32:03.722Z,84.90
2018-09-23T09:34:32.345Z,85.40
2018-09-23T09:37:01.015Z,85.60
2018-09-23T09:39:30.977Z,85.30
2018-09-23T09:41:59.637Z,85.20
2018-09-23T09:44:28.337Z,85.90
2018-09-23T09:46:57.362Z,85.60
2018-09-23T09:49:26.059Z,85.70
2018-09-23T09:51:54.832Z,85.10
2018-09-23T09:54:23.486Z,84.40
2018-09-23T09:56:52.189Z,84.40
2018-09-23T09:59:21.732Z,84.40
2018-09-23T10:01:51.002Z,84.00
2018-09-23T10:04:19.884Z,84.20
2018-09-23T10:06:48.918Z,84.20
2018-09-23T10:09:17.797Z,84.10
2018-09-23T10:11:46.768Z,83.80
2018-09-23T10:14:15.688Z,83.70
2018-09-23T10:16:44.622Z,83.50
2018-09-23T10:19:13.544Z,83.60
2018-09-23T10:21:42.438Z,83.40
2018-09-23T10:24:11.316Z,83.20
2018-09-23T10:26:40.174Z,83.40
2018-09-23T10:29:09.050Z,83.40
2018-09-23T10:31:38.102Z,82.90
2018-09-23T10:34:06.924Z,82.80
2018-09-23T10:36:35.922Z,82.80
2018-09-23T10:39:06.650Z,82.80
2018-09-23T10:41:35.691Z,82.40
2018-09-23T10:44:05.199Z,82.50
2018-09-23T10:46:34.318Z,82.50
2018-09-23T10:49:03.275Z,82.80
2018-09-23T10:51:32.208Z,83.10
2018-09-23T10:54:01.017Z,83.80
2018-09-23T10:56:29.657Z,84.90
2018-09-23T10:58:58.390Z,85.50
2018-09-23T11:01:27.065Z,86.40
2018-09-23T11:03:55.859Z,86.70
2018-09-23T11:06:24.405Z,86.80
2018-09-23T11:08:53.086Z,86.60
2018-09-23T11:11:21.797Z,86.20
2018-09-23T11:13:50.477Z,85.40
2018-09-23T11:16:19.146Z,85.30
2018-09-23T11:18:47.845Z,84.40
2018-09-23T11:21:16.522Z,84.00
2018-09-23T11:23:52.209Z,83.60
2018-09-23T11:26:21.082Z,83.10
2018-09-23T11:28:50.167Z,82.90
2018-09-23T11:31:19.249Z,82.30
2018-09-23T11:33:48.877Z,82.00
2018-09-23T11:36:18.190Z,81.50
2018-09-23T11:38:48.499Z,81.50
2018-09-23T11:41:17.409Z,81.60
2018-09-23T11:43:47.381Z,81.60
2018-09-23T11:46:16.196Z,82.10
2018-09-23T11:48:44.929Z,81.90
2018-09-23T11:51:13.572Z,81.90
2018-09-23T11:53:42.307Z,81.20
2018-09-23T11:56:11.021Z,81.10
2018-09-23T11:58:39.704Z,81.10
2018-09-23T12:01:09.264Z,80.60
2018-09-23T12:03:37.958Z,80.10
2018-09-23T12:06:06.721Z,79.90
2018-09-23T12:08:35.449Z,79.30
2018-09-23T12:11:04.261Z,79.50
2018-09-23T12:13:32.952Z,79.30
2018-09-23T12:16:01.632Z,79.10
2018-09-23T12:18:30.304Z,78.80
2018-09-23T12:20:58.975Z,78.80
2018-09-23T12:23:29.211Z,78.60
2018-09-23T12:25:58.367Z,78.50
2018-09-23T12:28:27.069Z,77.80
2018-09-23T12:30:55.913Z,75.90
2018-09-23T12:33:24.738Z,76.00
2018-09-23T12:35:53.662Z,76.50
2018-09-23T12:38:22.425Z,75.80
2018-09-23T12:40:51.750Z,76.00
2018-09-23T12:43:20.676Z,76.20
2018-09-23T12:45:49.549Z,75.70
2018-09-23T12:48:24.168Z,76.50
2018-09-23T12:50:52.969Z,75.60
2018-09-23T12:53:27.337Z,75.30
2018-09-23T12:56:05.459Z,75.10
2018-09-23T12:58:34.277Z,74.20
2018-09-23T13:01:07.774Z,72.70
2018-09-23T13:03:44.451Z,72.00
2018-09-23T13:06:13.303Z,71.70
2018-09-23T13:08:41.965Z,71.70
2018-09-23T13:11:10.717Z,71.60
2018-09-23T13:13:39.377Z,72.10
2018-09-23T13:16:08.107Z,72.10
2018-09-23T13:18:36.786Z,72.00
2018-09-23T13:21:05.469Z,71.70
2018-09-23T13:23:34.132Z,70.50
2018-09-23T13:26:02.950Z,70.10
2018-09-23T13:28:31.646Z,69.50
2018-09-23T13:31:00.431Z,69.80
2018-09-23T13:33:29.154Z,71.00
2018-09-23T13:35:57.832Z,70.60
2018-09-23T13:38:26.464Z,70.80
2018-09-23T13:40:55.279Z,70.70
2018-09-23T13:43:23.880Z,70.10
2018-09-23T13:45:52.610Z,71.00
2018-09-23T13:48:21.211Z,71.00
2018-09-23T13:50:49.908Z,71.60
2018-09-23T13:53:18.601Z,72.30
2018-09-23T13:55:47.268Z,72.20
2018-09-23T13:58:15.997Z,72.00
2018-09-23T14:00:44.671Z,71.00
2018-09-23T14:03:13.331Z,70.70
2018-09-23T14:05:41.962Z,71.30
2018-09-23T14:08:10.605Z,72.30
2018-09-23T14:10:39.281Z,73.00
2018-09-23T14:13:08.000Z,74.40
2018-09-23T14:15:36.921Z,77.20
2018-09-23T14:18:05.889Z,77.80
2018-09-23T14:20:34.737Z,78.50
2018-09-23T14:23:03.579Z,78.60
2018-09-23T14:25:37.474Z,78.30
2018-09-23T14:28:06.115Z,79.20
2018-09-23T14:30:34.849Z,80.50
2018-09-23T14:33:03.488Z,81.50
2018-09-23T14:35:32.153Z,83.50
2018-09-23T14:38:00.748Z,84.90
2018-09-23T14:40:29.629Z,85.60
2018-09-23T14:43:00.489Z,87.20
2018-09-23T14:45:29.172Z,87.10
2018-09-23T14:47:58.449Z,87.60
2018-09-23T14:50:27.162Z,87.00
2018-09-23T14:52:56.037Z,87.20
2018-09-23T14:55:24.809Z,85.30
2018-09-23T14:57:54.391Z,84.50
2018-09-23T15:00:23.256Z,83.60
2018-09-23T15:02:52.142Z,83.20
2018-09-23T15:05:20.790Z,83.10
2018-09-23T15:07:49.457Z,82.60
2018-09-23T15:10:19.135Z,82.20
2018-09-23T15:12:48.894Z,82.50
2018-09-23T15:15:17.775Z,81.50
2018-09-23T15:17:46.433Z,81.50
2018-09-23T15:20:15.181Z,80.30
2018-09-23T15:22:43.864Z,79.90
2018-09-23T15:25:12.781Z,80.30
2018-09-23T15:27:41.489Z,81.90
2018-09-23T15:30:10.194Z,83.90
2018-09-23T15:32:38.881Z,84.20
2018-09-23T15:35:08.493Z,84.40
2018-09-23T15:37:38.209Z,85.30
2018-09-23T15:40:07.152Z,85.80
2018-09-23T15:42:35.901Z,84.90
2018-09-23T15:45:04.707Z,85.80
2018-09-23T15:47:33.758Z,85.60
2018-09-23T15:50:02.622Z,84.20
2018-09-23T15:52:31.510Z,83.50
2018-09-23T15:55:00.159Z,83.40
2018-09-23T15:57:29.985Z,82.90
2018-09-23T16:00:01.460Z,82.60
2018-09-23T16:02:30.396Z,82.00
2018-09-23T16:04:59.148Z,80.80
2018-09-23T16:07:28.334Z,80.20
2018-09-23T16:09:56.989Z,79.70
2018-09-23T16:12:25.779Z,79.20
2018-09-23T16:14:54.521Z,79.30
2018-09-23T16:17:23.204Z,80.60
2018-09-23T16:19:51.837Z,82.50
2018-09-23T16:22:20.547Z,89.30
2018-09-23T16:24:49.241Z,92.40
2018-09-23T16:27:17.901Z,94.80
2018-09-23T16:29:46.785Z,96.00
2018-09-23T16:32:16.077Z,96.80
2018-09-23T16:34:44.749Z,97.40
2018-09-23T16:37:13.376Z,97.30
2018-09-23T16:39:43.526Z,97.40
2018-09-23T16:42:12.325Z,97.70
2018-09-23T16:44:41.597Z,97.40
2018-09-23T16:47:10.865Z,97.20
2018-09-23T16:49:39.570Z,97.20
2018-09-23T16:52:13.828Z,97.70
2018-09-23T16:54:43.492Z,96.30
2018-09-23T16:57:14.610Z,95.80
2018-09-23T16:59:49.661Z,95.40
2018-09-23T17:02:18.338Z,96.40
2018-09-23T17:04:47.090Z,96.50
2018-09-23T17:07:15.870Z,96.40
2018-09-23T17:09:44.836Z,97.00
2018-09-23T17:12:13.519Z,96.10
2018-09-23T17:14:42.281Z,96.70
2018-09-23T17:17:11.084Z,97.10
2018-09-23T17:19:39.777Z,97.00
2018-09-23T17:22:08.853Z,97.20
2018-09-23T17:24:37.621Z,97.00
2018-09-23T17:27:06.697Z,97.40
2018-09-23T17:29:35.462Z,97.50
2018-09-23T17:32:04.136Z,97.40
2018-09-23T17:34:32.818Z,97.40
2018-09-23T17:37:01.865Z,97.20
2018-09-23T17:39:30.574Z,97.50
2018-09-23T17:44:53.530Z,98.20
2018-09-23T17:47:26.549Z,98.10
2018-09-23T17:50:01.910Z,97.60
2018-09-23T17:52:36.171Z,97.80
2018-09-23T17:55:04.992Z,97.70
2018-09-23T17:57:37.164Z,97.50
2018-09-23T18:00:14.229Z,97.80
2018-09-23T18:02:44.991Z,97.50
2018-09-23T18:05:18.241Z,97.60
2018-09-23T18:07:48.184Z,97.50
2018-09-23T18:10:20.945Z,97.70
2018-09-23T18:12:49.865Z,97.30
2018-09-23T18:15:18.555Z,93.70
2018-09-23T18:17:47.197Z,94.20
2018-09-23T18:20:15.881Z,95.00
2018-09-23T18:22:44.452Z,95.00
2018-09-23T18:25:13.367Z,95.00
2018-09-23T18:27:42.037Z,94.90
2018-09-23T18:30:10.718Z,94.40
2018-09-23T18:32:39.397Z,94.30
2018-09-23T18:35:08.217Z,93.70
2018-09-23T18:37:36.948Z,93.80
2018-09-23T18:40:06.094Z,94.30
2018-09-23T18:42:34.839Z,94.20
2018-09-23T18:45:03.538Z,93.80
2018-09-23T18:47:32.270Z,94.30
2018-09-23T18:50:00.959Z,94.10
2018-09-23T18:52:29.589Z,94.30
2018-09-23T18:55:03.919Z,94.90
2018-09-23T18:57:32.670Z,94.90
2018-09-23T19:00:01.424Z,95.00
2018-09-23T19:02:30.133Z,95.20
2018-09-23T19:04:58.797Z,95.00
2018-09-23T19:07:28.682Z,94.90
2018-09-23T19:09:57.342Z,94.10
2018-09-23T19:12:26.045Z,93.20
2018-09-23T19:14:54.649Z,93.20
2018-09-23T19:17:23.321Z,94.10
2018-09-23T19:19:57.240Z,93.30
2018-09-23T19:22:31.159Z,93.20
2018-09-23T19:24:59.853Z,93.10
2018-09-23T19:27:28.525Z,92.90
2018-09-23T19:29:57.222Z,92.90
2018-09-23T19:32:25.966Z,93.50
2018-09-23T19:34:54.636Z,93.50
2018-09-23T19:37:23.381Z,92.70
2018-09-23T19:39:52.094Z,93.30
2018-09-23T19:42:20.904Z,92.40
2018-09-23T19:44:49.586Z,91.50
2018-09-23T19:47:18.294Z,91.50
2018-09-23T19:49:46.961Z,91.80
2018-09-23T19:52:23.330Z,92.10
2018-09-23T19:54:52.013Z,92.30
2018-09-23T19:57:20.701Z,92.60
2018-09-23T19:59:49.660Z,92.30
2018-09-23T20:02:18.425Z,92.00
2018-09-23T20:04:47.140Z,91.50
2018-09-23T20:07:15.747Z,90.90
2018-09-23T20:09:44.421Z,90.50
2018-09-23T20:12:13.190Z,91.20
2018-09-23T20:14:42.028Z,90.10
2018-09-23T20:17:10.733Z,90.30
2018-09-23T20:19:39.452Z,90.30
2018-09-23T20:22:09.473Z,90.20
2018-09-23T20:24:48.902Z,90.60
2018-09-23T20:27:17.588Z,91.00
2018-09-23T20:29:46.218Z,90.80
2018-09-23T20:32:14.881Z,90.60
2018-09-23T20:34:43.590Z,89.30
2018-09-23T20:37:12.328Z,89.30
2018-09-23T20:39:41.106Z,88.40
2018-09-23T20:42:09.781Z,88.80
2018-09-23T20:44:38.457Z,88.10
2018-09-23T20:47:06.789Z,88.00
2018-09-23T20:49:35.444Z,88.30
2018-09-23T20:52:04.133Z,87.70
2018-09-23T20:54:32.834Z,88.00
2018-09-23T20:57:01.820Z,87.90
2018-09-23T20:59:30.500Z,87.30
2018-09-23T21:01:59.194Z,88.10
2018-09-23T21:04:27.985Z,88.60
2018-09-23T21:06:58.472Z,88.30
2018-09-23T21:09:27.210Z,87.90
2018-09-23T21:11:55.869Z,87.90
2018-09-23T21:14:24.533Z,88.30
2018-09-23T21:16:53.162Z,88.10
2018-09-23T21:19:21.876Z,88.50
2018-09-23T21:21:50.601Z,88.60
2018-09-23T21:24:19.329Z,88.40
2018-09-23T21:26:47.960Z,88.80
2018-09-23T21:29:16.660Z,88.50
2018-09-23T21:31:45.384Z,88.90
2018-09-23T21:34:14.162Z,88.90
2018-09-23T21:36:42.817Z,88.30
2018-09-23T21:39:11.533Z,88.30
2018-09-23T21:41:40.253Z,87.40
2018-09-23T21:44:09.401Z,87.40
2018-09-23T21:46:38.148Z,87.90
2018-09-23T21:49:06.855Z,87.80
2018-09-23T21:51:35.506Z,87.90
2018-09-23T21:54:04.393Z,87.40
2018-09-23T21:56:33.069Z,87.70
2018-09-23T21:59:01.699Z,87.30
2018-09-23T22:01:30.401Z,87.70
2018-09-23T22:03:59.094Z,85.80
2018-09-23T22:06:27.885Z,85.20
2018-09-23T22:08:56.518Z,85.60
2018-09-23T22:11:25.203Z,83.90
2018-09-23T22:13:53.835Z,85.00
2018-09-23T22:16:22.499Z,85.40
2018-09-23T22:18:51.172Z,85.50
2018-09-23T22:21:19.857Z,85.10
2018-09-23T22:23:48.504Z,84.40
2018-09-23T22:26:17.145Z,84.60
2018-09-23T22:28:45.770Z,85.20
2018-09-23T22:31:14.485Z,83.40
2018-09-23T22:33:43.154Z,83.80
2018-09-23T22:36:11.826Z,83.80
2018-09-23T22:38:40.562Z,83.70
2018-09-23T22:41:09.259Z,83.80
2018-09-23T22:43:37.934Z,84.00
2018-09-23T22:46:06.646Z,83.50
2018-09-23T22:48:35.426Z,84.10
2018-09-23T22:51:04.181Z,84.10
2018-09-23T22:53:32.831Z,83.20
2018-09-23T22:56:01.545Z,83.70
2018-09-23T22:58:30.264Z,83.10
2018-09-23T23:00:59.102Z,83.70
2018-09-23T23:03:27.845Z,83.80
2018-09-23T23:05:56.522Z,83.80
2018-09-23T23:08:25.233Z,84.30
2018-09-23T23:10:53.962Z,84.60
2018-09-23T23:13:22.631Z,84.50
2018-09-23T23:15:51.837Z,84.60
2018-09-23T23:18:20.503Z,84.80
2018-09-23T23:20:49.197Z,84.80
2018-09-23T23:23:17.946Z,84.40
2018-09-23T23:25:46.617Z,84.80
2018-09-23T23:28:15.277Z,84.90
2018-09-23T23:30:43.925Z,85.00
2018-09-23T23:33:13.781Z,84.80
2018-09-23T23:35:42.462Z,84.90
2018-09-23T23:38:11.125Z,84.80
2018-09-23T23:40:39.796Z,85.30
2018-09-23T23:43:08.475Z,85.50
2018-09-23T23:45:37.205Z,85.50
2018-09-23T23:48:06.058Z,85.60
2018-09-23T23:50:34.729Z,85.60
2018-09-23T23:53:03.424Z,85.90
2018-09-23T23:55:32.105Z,85.50
2018-09-23T23:58:00.784Z,85.60
